Time;durP1;ratioP1;P1;durP2;ratioP2;P2;SDS_P1;SDS_P2;PMS_P1;PMS_P2;Temp;Humidity;BMP_temperature;BMP_pressure;BME280_temperature;BME280_humidity;BME280_pressure;Samples;Min_cycle;Max_cycle;Signal;HPM_P1;HPM_P2
2022/01/25 00:26:35;;;;;;;8.30;6.77;;;3.50;99.90;;;;;;9867088;30;20221;-80
2022/01/25 00:32:00;;;;;;;6.97;5.50;;;3.50;99.90;;;;;;9880154;30;20283;-78
2022/01/25 00:37:26;;;;;;;8.00;5.80;;;3.60;99.90;;;;;;9896574;30;20188;-79
2022/01/25 00:50:38;;;;;;;7.60;5.70;;;3.50;99.90;;;;;;10020840;29;20244;-78
2022/01/25 00:56:03;;;;;;;6.50;5.20;;;3.50;99.90;;;;;;9978777;29;20223;-77
2022/01/25 01:01:28;;;;;;;7.63;5.73;;;3.50;99.90;;;;;;9990909;29;20232;-78
2022/01/25 01:47:23;;;;;;;10.27;6.87;;;3.60;99.90;;;;;;10005137;29;20261;-78
2022/01/25 01:52:45;;;;;;;13.50;7.03;;;3.50;99.90;;;;;;9961172;29;20497;-78
2022/01/25 01:58:07;;;;;;;9.87;6.70;;;3.50;99.90;;;;;;9990544;29;20212;-78
2022/01/25 02:03:29;;;;;;;13.30;7.53;;;3.50;99.90;;;;;;9997831;29;20244;-78
2022/01/25 02:08:51;;;;;;;12.20;7.90;;;3.50;99.90;;;;;;9998769;29;20196;-77
2022/01/25 02:14:16;;;;;;;13.23;8.30;;;3.50;99.90;;;;;;10003397;29;20201;-80
2022/01/25 02:25:20;;;;;;;14.53;8.83;;;3.50;99.90;;;;;;9981667;29;20529;-80
2022/01/25 02:30:43;;;;;;;14.87;8.33;;;3.50;99.90;;;;;;9978434;29;20521;-78
2022/01/25 02:36:12;;;;;;;13.80;8.50;;;3.40;99.90;;;;;;10002336;29;20208;-79
2022/01/25 02:41:35;;;;;;;14.63;8.27;;;3.50;99.90;;;;;;9996325;29;20268;-79
2022/01/25 02:52:25;;;;;;;13.83;8.13;;;3.50;99.90;;;;;;9969463;29;20571;-79
2022/01/25 02:57:47;;;;;;;14.87;8.77;;;3.50;99.90;;;;;;9969134;29;20433;-79
2022/01/25 03:03:09;;;;;;;16.97;9.70;;;3.50;99.90;;;;;;9958713;29;20242;-79
2022/01/25 03:08:32;;;;;;;11.20;7.87;;;3.50;99.90;;;;;;10000776;29;20487;-79
2022/01/25 03:13:58;;;;;;;12.47;8.47;;;3.50;99.90;;;;;;10006652;29;20200;-79
2022/01/25 03:24:54;;;;;;;15.03;9.60;;;3.50;99.90;;;;;;9976895;29;20276;-80
2022/01/25 03:30:16;;;;;;;14.17;9.17;;;3.50;99.90;;;;;;9961161;29;20233;-80
2022/01/25 03:35:38;;;;;;;16.80;9.97;;;3.50;99.90;;;;;;9941033;29;20212;-80
2022/01/25 03:41:02;;;;;;;17.10;10.20;;;3.50;99.90;;;;;;9972145;29;20279;-83
2022/01/25 03:46:36;;;;;;;16.97;9.93;;;3.50;99.90;;;;;;10001917;29;20498;-79
2022/01/25 03:51:58;;;;;;;18.67;8.40;;;3.50;99.90;;;;;;9980288;29;20213;-79
2022/01/25 03:57:20;;;;;;;16.50;9.30;;;3.50;99.90;;;;;;10001093;29;20202;-80
2022/01/25 04:02:51;;;;;;;16.57;9.10;;;3.50;99.90;;;;;;9990130;29;20237;-79
2022/01/25 04:08:15;;;;;;;17.07;8.63;;;3.50;99.90;;;;;;9992224;29;20217;-79
2022/01/25 04:13:37;;;;;;;15.40;9.07;;;3.50;99.90;;;;;;9994459;29;20208;-80
2022/01/25 04:19:13;;;;;;;12.03;7.97;;;3.60;99.90;;;;;;10004801;29;20199;-79
2022/01/25 04:25:04;;;;;;;14.17;7.67;;;3.60;99.90;;;;;;9988050;29;20204;-79
2022/01/25 04:30:26;;;;;;;11.53;7.27;;;3.60;99.90;;;;;;9975462;29;20207;-81
2022/01/25 04:36:12;;;;;;;13.03;7.30;;;3.60;99.90;;;;;;10002772;29;20210;-79
2022/01/25 04:53:08;;;;;;;10.77;6.73;;;3.60;99.90;;;;;;9980928;29;20265;-79
2022/01/25 04:58:48;;;;;;;11.30;7.00;;;3.60;99.90;;;;;;9949657;29;20548;-78
2022/01/25 05:04:16;;;;;;;11.33;6.53;;;3.60;99.90;;;;;;9953559;29;20252;-79
2022/01/25 05:09:39;;;;;;;10.17;7.17;;;3.60;99.90;;;;;;9950627;29;20207;-82
2022/01/25 05:15:17;;;;;;;14.17;7.33;;;3.60;99.90;;;;;;9999864;29;20385;-82
2022/01/25 05:26:23;;;;;;;10.53;6.17;;;3.60;99.90;;;;;;9998468;29;20427;-79
2022/01/25 05:31:46;;;;;;;8.93;5.70;;;3.60;99.90;;;;;;10000837;29;20208;-79
2022/01/25 05:37:09;;;;;;;7.77;4.77;;;3.60;99.90;;;;;;9990991;29;20204;-79
2022/01/25 05:47:53;;;;;;;10.23;6.17;;;3.60;99.90;;;;;;9963284;29;20201;-78
2022/01/25 05:53:14;;;;;;;10.20;5.73;;;3.70;99.90;;;;;;9983819;29;20233;-79
2022/01/25 05:58:36;;;;;;;12.67;5.43;;;3.70;99.90;;;;;;9961204;29;20207;-83
2022/01/25 06:03:58;;;;;;;8.90;4.90;;;3.70;99.90;;;;;;9951207;29;20452;-82
2022/01/25 06:09:20;;;;;;;6.93;4.30;;;3.70;99.90;;;;;;9975330;29;20204;-81
2022/01/25 06:14:42;;;;;;;9.37;5.17;;;3.80;99.90;;;;;;10003590;29;20208;-80
2022/01/25 06:20:06;;;;;;;7.90;4.77;;;3.70;99.90;;;;;;10004751;29;20224;-79
2022/01/25 06:25:28;;;;;;;11.20;4.97;;;3.70;99.90;;;;;;9992596;29;20209;-78
2022/01/25 06:30:50;;;;;;;14.10;7.30;;;3.90;99.90;;;;;;10007648;29;20248;-79
2022/01/25 06:36:13;;;;;;;11.83;5.97;;;3.80;99.90;;;;;;9987271;29;20215;-79
2022/01/25 06:41:36;;;;;;;11.63;5.37;;;3.70;99.90;;;;;;9999817;29;20253;-81
2022/01/25 06:46:59;;;;;;;8.57;5.67;;;3.70;99.90;;;;;;10000705;29;20493;-80
2022/01/25 06:52:21;;;;;;;9.80;6.30;;;3.80;99.90;;;;;;9995535;29;20217;-79
2022/01/25 06:57:44;;;;;;;11.13;6.30;;;3.80;99.90;;;;;;9998272;29;20279;-79
2022/01/25 07:03:06;;;;;;;29.50;11.53;;;3.70;99.90;;;;;;9975536;29;20311;-80
2022/01/25 07:08:28;;;;;;;13.43;7.30;;;3.80;99.90;;;;;;9982482;29;20507;-79
2022/01/25 07:13:50;;;;;;;19.60;8.97;;;3.80;99.90;;;;;;9961386;29;20420;-78
2022/01/25 07:19:13;;;;;;;10.73;6.27;;;3.90;99.90;;;;;;9966967;29;20215;-79
2022/01/25 07:24:35;;;;;;;10.53;6.47;;;3.90;99.90;;;;;;9965979;29;20212;-80
2022/01/25 07:29:57;;;;;;;10.93;6.53;;;3.80;99.90;;;;;;9943710;29;20283;-78
2022/01/25 07:35:19;;;;;;;11.60;5.70;;;3.90;99.90;;;;;;9961199;29;20250;-81
2022/01/25 07:40:45;;;;;;;10.00;5.97;;;3.90;99.90;;;;;;9987102;29;20307;-81
2022/01/25 07:46:07;;;;;;;8.93;5.63;;;3.90;99.90;;;;;;10009673;29;20209;-81
2022/01/25 07:51:44;;;;;;;13.93;5.97;;;3.90;99.90;;;;;;9970669;29;20200;-81
2022/01/25 07:57:09;;;;;;;9.43;6.57;;;3.90;99.90;;;;;;9958432;29;20201;-80
2022/01/25 08:02:31;;;;;;;7.70;5.60;;;3.90;99.90;;;;;;9990237;29;20237;-79
2022/01/25 08:08:00;;;;;;;8.77;5.73;;;3.90;99.90;;;;;;9992331;29;20194;-80
2022/01/25 08:13:22;;;;;;;11.30;6.30;;;4.00;99.90;;;;;;9961637;29;20214;-79
2022/01/25 08:19:09;;;;;;;12.17;7.17;;;4.00;99.90;;;;;;9977271;29;20218;-80
2022/01/25 08:24:52;;;;;;;9.27;5.30;;;4.10;99.90;;;;;;9958105;29;20318;-80
2022/01/25 08:30:29;;;;;;;9.40;6.17;;;4.10;99.90;;;;;;10000223;29;20202;-80
2022/01/25 08:36:06;;;;;;;16.43;7.37;;;4.10;99.90;;;;;;9908197;29;20214;-80
2022/01/25 08:41:29;;;;;;;12.30;7.17;;;4.10;99.90;;;;;;9862348;30;20259;-82
2022/01/25 08:47:11;;;;;;;9.27;6.07;;;4.10;99.90;;;;;;9857332;30;20225;-85
2022/01/25 08:52:54;;;;;;;9.17;6.50;;;4.10;99.90;;;;;;9841313;30;20228;-79
2022/01/25 08:58:43;;;;;;;9.33;6.70;;;4.10;99.90;;;;;;9822249;30;20211;-78
2022/01/25 09:04:05;;;;;;;11.90;7.63;;;4.20;99.90;;;;;;9877474;29;20285;-82
2022/01/25 09:09:27;;;;;;;11.57;6.83;;;4.20;99.90;;;;;;9953004;29;20228;-81
2022/01/25 09:14:54;;;;;;;11.47;7.93;;;4.30;99.90;;;;;;9975004;29;20201;-82
2022/01/25 09:20:17;;;;;;;13.33;7.90;;;4.30;99.90;;;;;;9958060;29;20241;-82
2022/01/25 09:25:39;;;;;;;13.07;7.93;;;4.30;99.90;;;;;;9922495;29;20249;-82
2022/01/25 09:31:02;;;;;;;11.33;7.40;;;4.30;99.90;;;;;;9932905;29;20218;-80
2022/01/25 09:36:24;;;;;;;10.67;7.10;;;4.30;99.90;;;;;;9971511;29;20271;-81
2022/01/25 09:41:47;;;;;;;10.63;6.33;;;4.30;99.90;;;;;;9940569;29;20244;-83
2022/01/25 09:47:12;;;;;;;13.67;7.63;;;4.30;99.90;;;;;;9925982;29;20247;-81
2022/01/25 09:52:35;;;;;;;16.67;8.43;;;4.30;99.90;;;;;;9936647;29;20289;-80
2022/01/25 09:57:57;;;;;;;21.13;10.30;;;4.40;99.90;;;;;;9941190;29;20214;-80
2022/01/25 10:03:41;;;;;;;21.87;9.60;;;4.40;99.90;;;;;;9928700;29;20267;-80
2022/01/25 10:09:03;;;;;;;18.37;9.47;;;4.50;99.90;;;;;;9957236;29;20388;-77
2022/01/25 10:14:28;;;;;;;20.97;10.17;;;4.40;99.90;;;;;;9931279;30;20521;-78
2022/01/25 10:19:50;;;;;;;15.17;7.97;;;4.40;99.90;;;;;;9932682;29;20225;-82
2022/01/25 10:25:12;;;;;;;11.70;7.33;;;4.50;99.90;;;;;;9938578;29;20225;-81
2022/01/25 10:30:55;;;;;;;13.87;7.23;;;4.40;99.90;;;;;;9942203;29;20199;-81
2022/01/25 10:36:22;;;;;;;11.03;5.97;;;4.50;99.90;;;;;;9927595;29;20206;-82
2022/01/25 10:41:44;;;;;;;14.80;6.20;;;4.60;99.90;;;;;;9956863;29;20285;-82
2022/01/25 10:47:07;;;;;;;11.27;6.50;;;4.70;99.90;;;;;;9965319;29;20216;-81
2022/01/25 10:52:29;;;;;;;9.90;6.37;;;4.60;99.90;;;;;;9997493;29;20213;-80
2022/01/25 10:58:02;;;;;;;11.50;6.90;;;4.70;99.90;;;;;;9973053;29;20281;-81
2022/01/25 11:03:31;;;;;;;16.33;8.43;;;4.70;99.90;;;;;;9955274;29;20309;-82
2022/01/25 11:08:54;;;;;;;8.60;5.40;;;4.80;99.90;;;;;;9967240;29;20219;-87
2022/01/25 11:20:00;;;;;;;7.80;4.50;;;4.90;99.90;;;;;;10003664;29;20199;-81
2022/01/25 11:25:23;;;;;;;16.93;8.83;;;4.90;99.90;;;;;;9968839;29;20222;-81
2022/01/25 11:30:47;;;;;;;16.47;8.27;;;4.90;99.90;;;;;;10005470;29;20214;-82
2022/01/25 11:36:11;;;;;;;18.10;8.93;;;4.90;99.90;;;;;;9994746;29;20247;-81
2022/01/25 11:41:34;;;;;;;10.87;5.10;;;4.90;99.90;;;;;;10007024;29;20252;-81
2022/01/25 11:47:10;;;;;;;13.33;6.83;;;5.00;99.90;;;;;;10002914;29;20205;-81
2022/01/25 11:52:32;;;;;;;13.47;5.20;;;5.00;99.90;;;;;;9984591;29;20213;-82
2022/01/25 11:58:08;;;;;;;10.27;5.83;;;5.00;99.90;;;;;;10003353;29;20213;-82
2022/01/25 12:03:41;;;;;;;17.50;7.07;;;5.00;99.90;;;;;;9989190;29;20478;-81
2022/01/25 12:09:16;;;;;;;17.17;8.57;;;5.10;99.90;;;;;;10002068;29;20516;-81
2022/01/25 12:14:48;;;;;;;18.27;7.50;;;5.10;99.90;;;;;;9987513;29;20230;-81
2022/01/25 12:20:21;;;;;;;18.57;8.40;;;5.20;99.90;;;;;;9966928;29;20223;-83
2022/01/25 12:25:54;;;;;;;15.57;8.33;;;5.20;99.90;;;;;;9976660;29;20835;-80
2022/01/25 12:31:42;;;;;;;15.50;7.90;;;5.10;99.90;;;;;;9989985;29;20234;-84
2022/01/25 12:37:05;;;;;;;25.90;13.80;;;5.00;99.90;;;;;;10002516;29;20210;-83
2022/01/25 12:42:32;;;;;;;35.10;16.00;;;5.00;99.90;;;;;;9977366;29;20258;-82
2022/01/25 12:47:58;;;;;;;18.93;7.17;;;5.00;99.90;;;;;;9952869;29;20211;-79
2022/01/25 12:53:23;;;;;;;21.20;9.17;;;5.00;99.90;;;;;;9976174;29;20223;-85
2022/01/25 12:58:48;;;;;;;24.67;10.63;;;5.00;99.90;;;;;;9976958;29;20226;-85
2022/01/25 13:04:11;;;;;;;27.70;12.13;;;5.00;99.90;;;;;;9977242;29;20272;-83
2022/01/25 13:09:41;;;;;;;16.07;7.80;;;4.90;99.90;;;;;;9999036;29;20214;-82
2022/01/25 13:15:26;;;;;;;20.03;8.73;;;4.90;99.90;;;;;;9957835;29;20230;-81
2022/01/25 13:21:00;;;;;;;28.23;10.60;;;4.90;99.90;;;;;;9977878;29;20230;-80
2022/01/25 13:26:23;;;;;;;15.23;8.47;;;4.90;99.90;;;;;;9986593;29;20561;-81
2022/01/25 13:31:44;;;;;;;29.13;13.10;;;4.90;99.90;;;;;;9987137;29;20218;-87
2022/01/25 13:37:21;;;;;;;19.30;9.63;;;4.80;99.90;;;;;;9980688;29;20551;-81
2022/01/25 13:42:57;;;;;;;22.87;11.67;;;4.70;99.90;;;;;;9992210;29;20618;-81
2022/01/25 13:48:22;;;;;;;27.70;14.77;;;4.70;99.90;;;;;;9952600;29;20281;-81
2022/01/25 13:53:53;;;;;;;31.13;17.50;;;4.70;99.90;;;;;;9948668;29;20210;-81
2022/01/25 13:59:16;;;;;;;50.43;26.60;;;4.70;99.90;;;;;;9963418;29;20274;-88
2022/01/25 14:04:38;;;;;;;54.00;27.67;;;4.70;99.90;;;;;;9971272;29;20242;-82
2022/01/25 14:10:18;;;;;;;20.33;11.47;;;4.70;99.90;;;;;;9987086;29;20294;-81
2022/01/25 14:22:29;;;;;;;26.80;11.27;;;4.70;99.90;;;;;;9985645;29;20237;-81
2022/01/25 14:27:32;;;;;;;27.13;11.43;;;4.70;99.90;;;;;;9991633;29;20263;-81
2022/01/25 14:33:02;;;;;;;34.00;14.03;;;4.60;99.90;;;;;;9961727;29;20293;-81
2022/01/25 14:38:27;;;;;;;29.00;11.53;;;4.60;99.90;;;;;;9981931;29;20416;-82
2022/01/25 14:43:56;;;;;;;18.33;9.00;;;4.60;99.90;;;;;;9984925;29;20233;-82
2022/01/25 14:49:27;;;;;;;19.30;8.17;;;4.50;99.90;;;;;;9957510;29;20294;-81
2022/01/25 14:54:50;;;;;;;18.37;9.20;;;4.50;99.90;;;;;;9985923;29;20218;-79
2022/01/25 15:00:13;;;;;;;30.33;12.97;;;4.50;99.90;;;;;;9970683;29;20236;-81
2022/01/25 15:05:35;;;;;;;27.13;9.33;;;4.50;99.90;;;;;;9987448;29;20240;-82
2022/01/25 15:11:00;;;;;;;25.30;11.67;;;4.40;99.90;;;;;;9963092;29;20206;-82
2022/01/25 15:16:22;;;;;;;26.90;13.53;;;4.40;99.90;;;;;;9976160;29;20229;-81
2022/01/25 15:21:51;;;;;;;28.33;11.43;;;4.30;99.90;;;;;;9940876;29;20488;-81
2022/01/25 15:27:21;;;;;;;26.03;11.77;;;4.40;99.90;;;;;;9995311;29;20252;-81
2022/01/25 15:32:43;;;;;;;36.23;13.97;;;4.30;99.90;;;;;;9989596;29;20253;-81
2022/01/25 15:38:05;;;;;;;42.63;14.63;;;4.30;99.90;;;;;;9980175;29;20272;-82
2022/01/25 15:43:37;;;;;;;23.93;9.03;;;4.30;99.90;;;;;;9977457;29;20242;-86
2022/01/25 15:49:03;;;;;;;14.27;5.73;;;4.30;99.90;;;;;;9982340;29;20297;-88
2022/01/25 15:54:25;;;;;;;15.77;6.93;;;4.30;99.90;;;;;;9978830;29;20213;-81
2022/01/25 15:59:47;;;;;;;17.50;7.67;;;4.30;99.90;;;;;;9986736;29;20217;-80
2022/01/25 16:05:14;;;;;;;15.83;8.63;;;4.30;99.90;;;;;;10000083;29;20527;-84
2022/01/25 16:10:38;;;;;;;9.70;5.80;;;4.30;99.90;;;;;;10002471;29;20213;-79
2022/01/25 16:16:00;;;;;;;12.23;5.37;;;4.30;99.90;;;;;;9972855;29;20217;-80
2022/01/25 16:21:32;;;;;;;32.50;13.37;;;4.20;99.90;;;;;;10014989;29;20305;-79
2022/01/25 16:26:54;;;;;;;31.73;16.37;;;4.20;99.90;;;;;;9985566;29;20265;-79
2022/01/25 16:32:20;;;;;;;44.33;21.30;;;4.20;99.90;;;;;;9996589;29;20658;-79
2022/01/25 16:37:43;;;;;;;44.13;26.73;;;4.20;99.90;;;;;;9985885;29;20448;-79
2022/01/25 16:43:09;;;;;;;52.03;27.80;;;4.20;99.90;;;;;;9998145;29;20298;-79
2022/01/25 16:48:31;;;;;;;28.70;11.83;;;4.20;99.90;;;;;;9998968;29;20210;-79
2022/01/25 16:53:53;;;;;;;24.13;11.20;;;4.20;99.90;;;;;;10001093;29;20214;-79
2022/01/25 16:59:21;;;;;;;31.30;14.70;;;4.10;99.90;;;;;;9999551;29;20208;-79
2022/01/25 17:04:43;;;;;;;18.90;10.30;;;4.10;99.90;;;;;;9988209;29;20426;-80
2022/01/25 17:10:08;;;;;;;24.83;9.10;;;4.00;99.90;;;;;;9970112;29;20219;-79
2022/01/25 17:15:32;;;;;;;25.30;10.10;;;3.90;99.90;;;;;;9955347;29;20273;-80
2022/01/25 17:20:55;;;;;;;23.93;10.10;;;3.90;99.90;;;;;;9953687;29;20357;-79
2022/01/25 17:26:17;;;;;;;33.00;15.73;;;3.80;99.90;;;;;;9952198;29;20216;-79
2022/01/25 17:31:39;;;;;;;21.53;9.13;;;3.80;99.90;;;;;;9967853;29;20553;-79
2022/01/25 17:37:02;;;;;;;13.70;6.53;;;3.70;99.90;;;;;;9988968;29;20215;-78
2022/01/25 17:42:25;;;;;;;20.10;6.83;;;3.70;99.90;;;;;;9961298;29;20277;-79
2022/01/25 17:47:48;;;;;;;19.63;7.53;;;3.60;99.90;;;;;;10003320;29;20324;-79
2022/01/25 17:53:11;;;;;;;32.30;11.97;;;3.60;99.90;;;;;;9976351;29;20216;-79
2022/01/25 17:58:33;;;;;;;34.10;13.23;;;3.50;99.90;;;;;;9991370;29;20551;-79
2022/01/25 18:03:55;;;;;;;27.97;12.37;;;3.50;99.90;;;;;;9975353;29;20230;-79
2022/01/25 18:09:20;;;;;;;20.60;8.13;;;3.50;99.90;;;;;;9975011;29;20224;-79
2022/01/25 18:14:42;;;;;;;13.40;6.63;;;3.40;99.90;;;;;;9991143;29;20258;-80
2022/01/25 18:20:06;;;;;;;8.67;5.00;;;3.40;99.90;;;;;;9991062;29;20245;-79
2022/01/25 18:30:56;;;;;;;14.83;5.67;;;3.40;99.90;;;;;;9989347;29;20197;-77
2022/01/25 18:36:18;;;;;;;18.57;6.50;;;3.40;99.90;;;;;;9949778;29;20246;-79
2022/01/25 18:41:42;;;;;;;19.63;8.10;;;3.40;99.90;;;;;;9950101;29;20551;-79
2022/01/25 18:47:06;;;;;;;16.47;6.40;;;3.30;99.90;;;;;;9937633;29;20241;-79
2022/01/25 18:52:28;;;;;;;10.43;5.33;;;3.30;99.90;;;;;;9949532;29;20215;-80
2022/01/25 18:57:50;;;;;;;11.13;5.57;;;3.30;99.90;;;;;;9937321;29;20455;-79
2022/01/25 19:03:12;;;;;;;18.87;6.10;;;3.20;99.90;;;;;;9949628;29;20288;-79
2022/01/25 19:08:34;;;;;;;13.97;5.80;;;3.20;99.90;;;;;;9961013;29;20206;-79
2022/01/25 19:13:56;;;;;;;19.40;5.07;;;3.20;99.90;;;;;;9949811;29;20221;-79
2022/01/25 19:19:21;;;;;;;14.77;5.80;;;3.10;99.90;;;;;;9952127;29;20201;-78
2022/01/25 19:24:43;;;;;;;18.17;5.60;;;3.10;99.90;;;;;;9943483;29;20238;-79
2022/01/25 19:30:09;;;;;;;18.10;7.00;;;3.20;99.90;;;;;;9971832;29;20232;-79
2022/01/25 19:35:32;;;;;;;17.13;7.13;;;3.30;99.90;;;;;;9971515;29;20239;-79
2022/01/25 19:40:57;;;;;;;24.83;8.20;;;3.30;99.90;;;;;;9977790;29;20240;-79
2022/01/25 19:46:24;;;;;;;34.73;11.90;;;3.30;99.90;;;;;;10008335;29;20205;-79
2022/01/25 19:51:47;;;;;;;25.83;9.97;;;3.30;99.90;;;;;;9995611;29;20400;-80
2022/01/25 19:57:11;;;;;;;35.13;12.23;;;3.30;99.90;;;;;;9995459;29;20202;-79
2022/01/25 20:02:39;;;;;;;40.20;12.80;;;3.20;99.90;;;;;;9967102;29;20237;-79
2022/01/25 20:08:00;;;;;;;46.20;13.63;;;3.30;99.90;;;;;;9984878;29;20289;-79
2022/01/25 20:13:23;;;;;;;37.97;11.50;;;3.20;99.90;;;;;;10007807;29;20225;-79
2022/01/25 20:18:47;;;;;;;23.80;9.17;;;3.30;99.90;;;;;;10007152;29;20206;-80
2022/01/25 20:29:39;;;;;;;15.60;6.63;;;3.30;99.90;;;;;;9954318;29;20213;-79
2022/01/25 20:35:01;;;;;;;11.40;5.80;;;3.30;99.90;;;;;;9955876;29;20343;-78
2022/01/25 20:40:23;;;;;;;13.30;5.17;;;3.40;99.90;;;;;;9956464;29;20570;-79
2022/01/25 20:45:46;;;;;;;12.40;4.57;;;3.40;99.90;;;;;;9953614;29;20237;-78
2022/01/25 20:51:08;;;;;;;13.03;6.60;;;3.40;99.90;;;;;;9941217;29;20206;-79
2022/01/25 20:56:33;;;;;;;23.40;8.60;;;3.40;99.90;;;;;;9984196;29;20208;-80
2022/01/25 21:01:58;;;;;;;23.57;8.90;;;3.40;99.90;;;;;;9990648;29;20262;-79
2022/01/25 21:07:24;;;;;;;47.27;16.37;;;3.40;99.90;;;;;;10005308;29;20213;-79
2022/01/25 21:12:47;;;;;;;63.40;21.70;;;3.40;99.90;;;;;;9977408;29;20205;-78
2022/01/25 21:18:08;;;;;;;41.33;14.83;;;3.30;99.90;;;;;;9990053;29;20209;-79
2022/01/25 21:23:30;;;;;;;28.43;9.67;;;3.30;99.90;;;;;;9976515;29;20256;-78
2022/01/25 21:28:53;;;;;;;23.03;7.87;;;3.30;99.90;;;;;;9977378;29;20227;-79
2022/01/25 21:34:18;;;;;;;21.00;7.80;;;3.30;99.90;;;;;;9992858;29;20208;-79
2022/01/25 21:39:40;;;;;;;19.20;7.63;;;3.40;99.90;;;;;;9992976;29;20233;-80
2022/01/25 21:45:03;;;;;;;19.10;8.37;;;3.40;99.90;;;;;;9976915;29;20258;-78
2022/01/25 21:50:27;;;;;;;16.93;7.13;;;3.40;99.90;;;;;;9997701;29;20257;-78
2022/01/25 21:55:49;;;;;;;19.03;6.50;;;3.40;99.90;;;;;;9963232;29;20550;-78
2022/01/25 22:01:11;;;;;;;18.03;8.40;;;3.40;99.90;;;;;;9954421;29;20221;-78
2022/01/25 22:06:40;;;;;;;21.50;9.17;;;3.40;99.90;;;;;;9985956;29;20568;-78
2022/01/25 22:12:09;;;;;;;17.70;7.63;;;3.40;99.90;;;;;;9988554;29;20241;-78
2022/01/25 22:17:31;;;;;;;15.30;5.87;;;3.40;99.90;;;;;;9976097;29;20212;-81
2022/01/25 22:22:53;;;;;;;18.37;7.10;;;3.40;99.90;;;;;;9975213;29;20312;-80
2022/01/25 22:28:15;;;;;;;14.63;6.30;;;3.40;99.90;;;;;;9975369;29;20226;-80
2022/01/25 22:33:37;;;;;;;12.97;5.30;;;3.40;99.90;;;;;;9975393;29;20209;-80
2022/01/25 22:39:00;;;;;;;10.93;5.37;;;3.40;99.90;;;;;;9975237;29;20241;-79
2022/01/25 22:44:23;;;;;;;25.17;10.73;;;3.40;99.90;;;;;;9991105;29;20234;-79
2022/01/25 22:49:48;;;;;;;11.57;5.27;;;3.40;99.90;;;;;;9975248;29;20211;-80
2022/01/25 22:55:11;;;;;;;12.07;5.43;;;3.40;99.90;;;;;;9966948;29;20239;-80
2022/01/25 23:00:33;;;;;;;9.67;4.77;;;3.40;99.90;;;;;;9957787;29;20212;-78
2022/01/25 23:05:57;;;;;;;11.20;5.67;;;3.30;99.90;;;;;;9957534;29;20404;-80
2022/01/25 23:11:21;;;;;;;15.33;6.43;;;3.30;99.90;;;;;;9993377;29;20576;-80
2022/01/25 23:16:53;;;;;;;11.27;5.07;;;3.40;99.90;;;;;;9981860;29;20209;-80
2022/01/25 23:22:16;;;;;;;9.73;3.80;;;3.40;99.90;;;;;;9980661;29;20217;-80
2022/01/25 23:27:38;;;;;;;8.73;3.30;;;3.40;99.90;;;;;;9981413;29;20508;-78
2022/01/25 23:38:47;;;;;;;12.73;3.30;;;3.50;99.90;;;;;;9973557;29;20253;-80
2022/01/25 23:44:26;;;;;;;6.43;2.80;;;3.50;99.90;;;;;;9943897;29;20241;-79
2022/01/25 23:49:55;;;;;;;5.47;2.87;;;3.50;99.90;;;;;;9958652;29;20202;-79
